createdAt,value
2023-02-02T00:02:43.465Z,89.36
2023-02-02T00:05:53.562Z,89.28
2023-02-02T00:08:58.126Z,89.03
2023-02-02T00:12:01.590Z,88.96
2023-02-02T00:15:04.353Z,89.06
2023-02-02T00:18:07.753Z,89.08
2023-02-02T00:21:10.179Z,89.17
2023-02-02T00:24:15.888Z,89.12
2023-02-02T00:27:18.341Z,89.14
2023-02-02T00:30:21.220Z,89.29
2023-02-02T00:33:23.633Z,88.86
2023-02-02T00:36:26.919Z,88.79
2023-02-02T00:39:29.754Z,88.66
2023-02-02T00:42:32.499Z,88.80
2023-02-02T00:45:34.993Z,88.54
2023-02-02T00:48:37.658Z,88.89
2023-02-02T00:51:40.038Z,88.86
2023-02-02T00:54:42.684Z,88.54
2023-02-02T00:57:45.188Z,88.72
2023-02-02T01:00:47.894Z,88.86
2023-02-02T01:03:51.288Z,88.85
2023-02-02T01:06:54.038Z,88.52
2023-02-02T01:09:56.846Z,87.96
2023-02-02T01:12:59.751Z,87.62
2023-02-02T01:16:06.026Z,87.46
2023-02-02T01:19:09.262Z,87.21
2023-02-02T01:22:11.772Z,87.27
2023-02-02T01:25:14.736Z,87.17
2023-02-02T01:28:17.622Z,87.23
2023-02-02T01:31:21.160Z,87.36
2023-02-02T01:34:23.983Z,87.25
2023-02-02T01:37:26.939Z,87.16
2023-02-02T01:40:29.409Z,87.22
2023-02-02T01:43:57.469Z,86.97
2023-02-02T01:46:59.972Z,87.04
2023-02-02T01:50:06.289Z,86.68
2023-02-02T01:53:10.550Z,87.12
2023-02-02T01:56:19.051Z,87.26
2023-02-02T01:59:22.683Z,87.74
2023-02-02T02:02:27.835Z,88.03
2023-02-02T02:05:36.379Z,87.98
2023-02-02T02:08:47.491Z,88.08
2023-02-02T02:11:53.837Z,88.54
2023-02-02T02:15:16.126Z,88.55
2023-02-02T02:18:50.449Z,88.89
2023-02-02T02:22:36.085Z,88.89
2023-02-02T02:26:35.698Z,89.13
2023-02-02T02:30:20.303Z,88.96
2023-02-02T02:33:57.232Z,88.89
2023-02-02T02:37:12.245Z,88.83
2023-02-02T02:40:34.471Z,88.77
2023-02-02T02:43:53.013Z,88.88
2023-02-02T02:46:57.127Z,88.91
2023-02-02T02:50:00.156Z,88.96
2023-02-02T02:53:09.828Z,88.92
2023-02-02T03:00:24.050Z,88.71
2023-02-02T03:03:38.455Z,88.66
2023-02-02T03:06:52.825Z,88.31
2023-02-02T03:09:59.103Z,88.07
2023-02-02T03:13:06.422Z,87.66
2023-02-02T03:16:10.252Z,87.59
2023-02-02T03:19:13.247Z,87.54
2023-02-02T03:22:15.655Z,87.27
2023-02-02T03:25:18.896Z,87.38
2023-02-02T03:28:23.233Z,87.21
2023-02-02T03:31:29.346Z,86.88
2023-02-02T03:34:31.809Z,86.66
2023-02-02T03:37:34.983Z,86.72
2023-02-02T03:40:37.444Z,86.85
2023-02-02T03:43:40.143Z,87.00
2023-02-02T03:46:42.628Z,86.91
2023-02-02T03:49:45.329Z,86.74
2023-02-02T03:52:47.777Z,86.93
2023-02-02T03:55:50.725Z,86.95
2023-02-02T03:58:53.246Z,87.12
2023-02-02T04:01:56.010Z,87.05
2023-02-02T04:04:58.845Z,86.72
2023-02-02T04:08:01.265Z,86.56
2023-02-02T04:11:04.044Z,86.40
2023-02-02T04:14:07.198Z,86.49
2023-02-02T04:17:10.095Z,86.47
2023-02-02T04:20:12.707Z,86.69
2023-02-02T04:23:15.383Z,87.02
2023-02-02T04:26:17.809Z,87.21
2023-02-02T04:29:20.485Z,87.25
2023-02-02T04:32:22.888Z,87.62
2023-02-02T04:35:25.942Z,88.04
2023-02-02T04:38:28.500Z,87.93
2023-02-02T04:41:31.155Z,88.00
2023-02-02T04:44:33.804Z,87.88
2023-02-02T04:47:36.527Z,88.09
2023-02-02T04:50:38.907Z,87.92
2023-02-02T04:53:43.022Z,87.77
2023-02-02T04:56:45.514Z,87.63
2023-02-02T04:59:48.264Z,87.17
2023-02-02T05:02:50.737Z,87.12
2023-02-02T05:06:02.438Z,87.17
2023-02-02T05:09:04.984Z,86.65
2023-02-02T05:12:07.796Z,86.42
2023-02-02T05:15:10.867Z,85.90
2023-02-02T05:18:13.640Z,85.55
2023-02-02T05:21:16.170Z,85.23
2023-02-02T05:24:18.923Z,84.90
2023-02-02T05:27:21.668Z,84.01
2023-02-02T05:30:24.723Z,83.78
2023-02-02T05:33:27.239Z,83.85
2023-02-02T05:36:29.997Z,83.88
2023-02-02T05:39:32.352Z,83.82
2023-02-02T05:42:35.022Z,83.95
2023-02-02T05:45:37.416Z,83.98
2023-02-02T05:48:40.104Z,84.32
2023-02-02T05:51:48.406Z,84.68
2023-02-02T05:54:51.163Z,84.82
2023-02-02T05:57:53.528Z,85.01
2023-02-02T06:00:56.776Z,85.38
2023-02-02T06:03:59.706Z,85.57
2023-02-02T06:07:02.115Z,85.62
2023-02-02T06:10:05.419Z,85.94
2023-02-02T06:13:08.955Z,85.87
2023-02-02T06:16:11.833Z,85.70
2023-02-02T06:19:14.234Z,85.33
2023-02-02T06:22:17.010Z,85.22
2023-02-02T06:25:19.527Z,85.47
2023-02-02T06:28:22.375Z,85.45
2023-02-02T06:31:24.945Z,85.10
2023-02-02T06:34:27.852Z,84.79
2023-02-02T06:37:30.887Z,84.47
2023-02-02T06:40:33.862Z,84.22
2023-02-02T06:43:36.296Z,84.07
2023-02-02T06:46:39.059Z,83.95
2023-02-02T06:49:41.507Z,83.87
2023-02-02T06:52:49.118Z,83.94
2023-02-02T06:56:00.596Z,83.81
2023-02-02T06:59:03.533Z,83.68
2023-02-02T07:02:06.306Z,83.58
2023-02-02T07:05:09.091Z,83.74
2023-02-02T07:08:11.486Z,83.67
2023-02-02T07:11:16.659Z,83.72
2023-02-02T07:14:19.877Z,83.49
2023-02-02T07:17:22.489Z,83.44
2023-02-02T07:20:24.911Z,83.51
2023-02-02T07:23:29.179Z,83.29
2023-02-02T07:26:31.929Z,83.07
2023-02-02T07:29:34.804Z,82.75
2023-02-02T07:32:37.304Z,82.46
2023-02-02T07:35:40.046Z,82.07
2023-02-02T07:38:43.412Z,81.74
2023-02-02T07:41:46.209Z,81.38
2023-02-02T07:44:49.320Z,81.00
2023-02-02T07:47:56.739Z,80.48
2023-02-02T07:51:00.818Z,79.87
2023-02-02T07:54:03.714Z,80.00
2023-02-02T07:57:06.160Z,79.98
2023-02-02T08:00:09.755Z,79.75
2023-02-02T08:03:14.511Z,79.71
2023-02-02T08:06:23.349Z,79.46
2023-02-02T08:09:25.899Z,79.16
2023-02-02T08:12:28.714Z,78.75
2023-02-02T08:15:31.114Z,78.61
2023-02-02T08:18:35.280Z,78.64
2023-02-02T08:21:37.688Z,77.99
2023-02-02T08:24:42.581Z,77.39
2023-02-02T08:27:44.986Z,76.60
2023-02-02T08:30:47.844Z,75.31
2023-02-02T08:33:51.624Z,75.16
2023-02-02T08:36:54.374Z,74.18
2023-02-02T08:39:56.787Z,73.07
2023-02-02T08:43:00.093Z,65.68
2023-02-02T08:46:13.902Z,58.26
2023-02-02T08:49:17.155Z,58.66
2023-02-02T08:52:19.560Z,61.36
2023-02-02T08:55:22.257Z,63.78
2023-02-02T08:58:24.737Z,61.87
2023-02-02T09:01:29.892Z,58.78
2023-02-02T09:04:32.290Z,58.12
2023-02-02T09:07:35.173Z,59.15
2023-02-02T09:10:38.246Z,59.72
2023-02-02T09:13:42.301Z,61.37
2023-02-02T09:16:44.863Z,61.68
2023-02-02T09:19:47.746Z,59.87
2023-02-02T09:22:50.194Z,58.40
2023-02-02T09:25:52.866Z,57.55
2023-02-02T09:28:58.631Z,57.62
2023-02-02T09:32:01.496Z,57.07
2023-02-02T09:35:04.715Z,55.27
2023-02-02T09:38:07.567Z,53.35
2023-02-02T09:41:34.814Z,52.31
2023-02-02T09:44:48.768Z,49.59
2023-02-02T09:47:58.533Z,48.15
2023-02-02T09:51:09.865Z,46.81
2023-02-02T09:54:22.966Z,45.49
2023-02-02T09:57:35.368Z,43.37
2023-02-02T10:00:44.218Z,45.33
2023-02-02T10:04:06.670Z,43.39
2023-02-02T10:07:29.608Z,42.66
2023-02-02T10:10:43.566Z,40.16
2023-02-02T10:13:48.719Z,37.77
2023-02-02T10:16:55.264Z,38.68
2023-02-02T10:20:06.769Z,35.74
2023-02-02T10:23:28.946Z,36.52
2023-02-02T10:26:40.379Z,37.95
2023-02-02T10:29:55.859Z,36.45
2023-02-02T10:33:06.034Z,35.67
2023-02-02T10:36:22.158Z,37.45
2023-02-02T10:39:46.779Z,37.72
2023-02-02T10:43:14.276Z,39.17
2023-02-02T10:46:32.135Z,37.96
2023-02-02T10:49:37.732Z,38.40
2023-02-02T10:52:45.440Z,36.05
2023-02-02T10:55:53.344Z,34.34
2023-02-02T10:59:30.077Z,33.31
2023-02-02T11:02:33.233Z,34.67
2023-02-02T11:05:55.378Z,33.30
2023-02-02T11:09:00.573Z,32.25
2023-02-02T11:12:35.751Z,29.92
2023-02-02T11:15:38.915Z,28.69
2023-02-02T11:18:45.711Z,28.22
2023-02-02T11:21:54.750Z,26.93
2023-02-02T11:25:00.324Z,27.71
2023-02-02T11:28:34.555Z,30.69
2023-02-02T11:31:37.996Z,31.08
2023-02-02T11:34:40.850Z,30.80
2023-02-02T11:38:10.616Z,29.48
2023-02-02T11:41:15.447Z,31.31
2023-02-02T11:44:26.751Z,27.93
2023-02-02T11:47:33.236Z,27.76
2023-02-02T11:50:36.474Z,29.56
2023-02-02T11:53:47.498Z,26.61
2023-02-02T11:56:54.067Z,29.80
2023-02-02T12:00:08.865Z,26.56
2023-02-02T12:03:29.180Z,26.55
2023-02-02T12:06:38.481Z,25.44
2023-02-02T12:09:41.242Z,26.06
2023-02-02T12:13:13.759Z,28.33
2023-02-02T12:16:54.839Z,28.82
2023-02-02T12:20:35.323Z,27.31
2023-02-02T12:23:59.887Z,28.78
2023-02-02T12:27:07.195Z,32.64
2023-02-02T12:30:21.952Z,35.49
2023-02-02T12:34:11.521Z,36.11
2023-02-02T12:37:36.127Z,35.26
2023-02-02T12:40:57.163Z,32.67
2023-02-02T12:44:11.900Z,31.68
2023-02-02T12:47:42.431Z,32.38
2023-02-02T12:51:11.368Z,32.41
2023-02-02T12:54:46.936Z,28.45
2023-02-02T12:58:09.333Z,32.54
2023-02-02T13:01:25.030Z,35.42
2023-02-02T13:04:45.786Z,39.18
2023-02-02T13:08:05.885Z,41.50
2023-02-02T13:11:33.019Z,42.62
2023-02-02T13:14:49.656Z,44.64
2023-02-02T13:17:59.044Z,43.97
2023-02-02T13:21:15.434Z,44.38
2023-02-02T13:24:25.507Z,44.96
2023-02-02T13:27:30.499Z,45.74
2023-02-02T13:30:38.455Z,46.28
2023-02-02T13:33:43.975Z,47.69
2023-02-02T13:37:02.039Z,48.57
2023-02-02T13:40:18.281Z,48.88
2023-02-02T13:43:47.222Z,48.18
2023-02-02T13:47:14.428Z,49.39
2023-02-02T13:50:21.671Z,50.62
2023-02-02T13:53:36.160Z,50.10
2023-02-02T13:56:49.410Z,48.90
2023-02-02T14:00:00.727Z,47.29
2023-02-02T14:03:23.801Z,42.94
2023-02-02T14:06:28.424Z,43.35
2023-02-02T14:09:37.677Z,41.06
2023-02-02T14:12:40.510Z,39.52
2023-02-02T14:15:44.541Z,40.02
2023-02-02T14:18:50.372Z,40.22
2023-02-02T14:22:05.238Z,39.98
2023-02-02T14:25:29.845Z,41.15
2023-02-02T14:29:01.805Z,44.53
2023-02-02T14:32:07.557Z,46.99
2023-02-02T14:35:15.812Z,49.18
2023-02-02T14:38:46.190Z,50.49
2023-02-02T14:42:23.650Z,51.64
2023-02-02T14:45:39.441Z,52.26
2023-02-02T14:49:07.818Z,52.82
2023-02-02T14:52:22.468Z,53.09
2023-02-02T14:55:25.478Z,53.77
2023-02-02T14:58:55.847Z,54.39
2023-02-02T15:02:24.479Z,55.25
2023-02-02T15:05:38.901Z,56.33
2023-02-02T15:08:41.462Z,57.12
2023-02-02T15:12:01.065Z,57.72
2023-02-02T15:15:10.680Z,58.15
2023-02-02T15:18:18.168Z,58.65
2023-02-02T15:21:22.184Z,59.15
2023-02-02T15:24:27.405Z,59.34
2023-02-02T15:27:31.632Z,59.70
2023-02-02T15:30:38.071Z,59.93
2023-02-02T15:33:44.690Z,60.18
2023-02-02T15:36:51.721Z,60.23
2023-02-02T15:39:59.945Z,60.75
2023-02-02T15:43:06.420Z,61.01
2023-02-02T15:46:14.177Z,60.88
2023-02-02T15:49:33.259Z,61.07
2023-02-02T15:52:47.092Z,61.10
2023-02-02T15:55:50.265Z,60.65
2023-02-02T15:58:55.093Z,60.40
2023-02-02T16:02:06.850Z,60.34
2023-02-02T16:05:46.391Z,60.82
2023-02-02T16:08:49.537Z,61.01
2023-02-02T16:11:53.499Z,61.21
2023-02-02T16:14:56.225Z,62.05
2023-02-02T16:18:13.554Z,62.40
2023-02-02T16:21:23.964Z,62.48
2023-02-02T16:24:37.314Z,62.88
2023-02-02T16:27:44.041Z,62.87
2023-02-02T16:30:47.101Z,62.97
2023-02-02T16:33:49.616Z,62.06
2023-02-02T16:37:32.500Z,62.35
2023-02-02T16:40:35.195Z,61.37
2023-02-02T16:43:40.184Z,61.91
2023-02-02T16:46:49.695Z,61.74
2023-02-02T16:50:27.718Z,62.21
2023-02-02T16:53:30.392Z,62.35
2023-02-02T16:56:48.925Z,63.24
2023-02-02T16:59:54.311Z,63.30
2023-02-02T17:03:02.233Z,63.47
2023-02-02T17:06:05.710Z,64.38
2023-02-02T17:09:27.781Z,64.47
2023-02-02T17:12:34.166Z,64.97
2023-02-02T17:15:37.869Z,65.56
2023-02-02T17:18:40.453Z,66.07
2023-02-02T17:21:43.211Z,66.49
2023-02-02T17:24:48.036Z,66.85
2023-02-02T17:27:50.762Z,67.27
2023-02-02T17:31:00.303Z,67.79
2023-02-02T17:34:04.213Z,68.22
2023-02-02T17:37:07.046Z,68.88
2023-02-02T17:40:17.184Z,69.25
2023-02-02T17:43:19.558Z,69.70
2023-02-02T17:46:22.269Z,69.89
2023-02-02T17:49:24.681Z,70.29
2023-02-02T17:52:27.624Z,70.68
2023-02-02T17:55:32.959Z,70.97
2023-02-02T17:58:35.644Z,71.35
2023-02-02T18:01:41.528Z,71.35
2023-02-02T18:04:45.706Z,72.52
2023-02-02T18:07:48.295Z,72.04
2023-02-02T18:10:50.963Z,72.18
2023-02-02T18:13:53.437Z,72.34
2023-02-02T18:16:56.386Z,72.24
2023-02-02T18:19:58.905Z,72.05
2023-02-02T18:23:01.781Z,72.02
2023-02-02T18:26:18.168Z,72.42
2023-02-02T18:29:20.995Z,72.15
2023-02-02T18:32:23.551Z,72.62
2023-02-02T18:35:27.225Z,72.74
2023-02-02T18:38:29.887Z,72.64
2023-02-02T18:41:32.690Z,72.54
2023-02-02T18:44:36.505Z,73.07
2023-02-02T18:47:41.329Z,73.00
2023-02-02T18:50:43.959Z,72.99
2023-02-02T18:53:47.664Z,72.86
2023-02-02T18:56:50.432Z,73.14
2023-02-02T18:59:53.290Z,73.25
2023-02-02T19:02:55.975Z,73.22
2023-02-02T19:06:17.229Z,73.57
2023-02-02T19:09:20.898Z,73.88
2023-02-02T19:12:28.483Z,74.22
2023-02-02T19:15:34.157Z,74.51
2023-02-02T19:18:37.242Z,74.66
2023-02-02T19:21:42.210Z,74.80
2023-02-02T19:24:44.955Z,74.96
2023-02-02T19:27:47.485Z,75.24
2023-02-02T19:30:54.474Z,75.30
2023-02-02T19:33:57.815Z,75.78
2023-02-02T19:37:12.360Z,76.09
2023-02-02T19:40:22.779Z,76.39
2023-02-02T19:43:28.171Z,76.88
2023-02-02T19:46:31.165Z,76.97
2023-02-02T19:49:36.236Z,77.08
2023-02-02T19:52:39.369Z,77.63
2023-02-02T19:55:44.353Z,78.41
2023-02-02T19:58:47.911Z,78.58
2023-02-02T20:01:50.933Z,78.92
2023-02-02T20:05:02.201Z,79.21
2023-02-02T20:08:19.598Z,79.58
2023-02-02T20:11:32.401Z,80.11
2023-02-02T20:14:36.946Z,80.28
2023-02-02T20:17:39.947Z,80.65
2023-02-02T20:20:45.557Z,81.22
2023-02-02T20:23:48.784Z,81.16
2023-02-02T20:26:53.803Z,81.56
2023-02-02T20:30:14.748Z,81.80
2023-02-02T20:33:24.831Z,82.27
2023-02-02T20:36:38.161Z,82.64
2023-02-02T20:39:45.258Z,82.51
2023-02-02T20:42:48.819Z,82.86
2023-02-02T20:45:51.702Z,83.25
2023-02-02T20:48:54.381Z,83.57
2023-02-02T20:51:58.687Z,84.02
2023-02-02T20:55:01.688Z,83.84
2023-02-02T20:58:04.590Z,84.15
2023-02-02T21:01:07.336Z,84.19
2023-02-02T21:04:10.151Z,84.32
2023-02-02T21:07:14.049Z,84.33
2023-02-02T21:10:16.504Z,84.60
2023-02-02T21:13:19.232Z,84.20
2023-02-02T21:16:22.489Z,84.16
2023-02-02T21:19:25.342Z,84.52
2023-02-02T21:22:27.939Z,84.07
2023-02-02T21:25:30.700Z,84.66
2023-02-02T21:28:33.093Z,85.05
2023-02-02T21:31:39.842Z,85.05
2023-02-02T21:34:42.516Z,85.19
2023-02-02T21:37:47.287Z,85.09
2023-02-02T21:40:51.677Z,85.20
2023-02-02T21:43:54.473Z,85.53
2023-02-02T21:46:57.030Z,85.54
2023-02-02T21:50:14.077Z,85.55
2023-02-02T21:53:20.230Z,85.47
2023-02-02T21:56:29.858Z,85.85
2023-02-02T21:59:36.886Z,85.94
2023-02-02T22:02:48.370Z,86.16
2023-02-02T22:05:51.296Z,86.07
2023-02-02T22:09:01.393Z,86.62
2023-02-02T22:12:17.831Z,86.80
2023-02-02T22:15:25.936Z,86.20
2023-02-02T22:18:29.408Z,86.13
2023-02-02T22:21:32.432Z,86.13
2023-02-02T22:24:36.048Z,86.68
2023-02-02T22:27:42.854Z,86.79
2023-02-02T22:30:45.737Z,87.04
2023-02-02T22:33:48.266Z,86.82
2023-02-02T22:36:50.988Z,86.64
2023-02-02T22:39:53.393Z,87.04
2023-02-02T22:42:58.300Z,87.06
2023-02-02T22:46:00.830Z,86.99
2023-02-02T22:49:03.643Z,86.90
2023-02-02T22:52:06.084Z,86.53
2023-02-02T22:55:10.155Z,86.36
2023-02-02T22:58:12.679Z,86.48
2023-02-02T23:01:15.567Z,86.46
2023-02-02T23:04:18.125Z,86.28
2023-02-02T23:07:20.897Z,86.29
2023-02-02T23:10:26.486Z,86.32
2023-02-02T23:13:29.426Z,86.49
2023-02-02T23:16:32.035Z,86.62
2023-02-02T23:19:34.707Z,86.89
2023-02-02T23:22:37.141Z,87.08
2023-02-02T23:25:39.847Z,87.11
2023-02-02T23:28:42.180Z,87.02
2023-02-02T23:31:44.888Z,86.71
2023-02-02T23:34:47.423Z,86.44
2023-02-02T23:37:50.078Z,85.96
2023-02-02T23:40:52.465Z,85.78
2023-02-02T23:43:55.168Z,85.81
2023-02-02T23:46:57.895Z,86.22
2023-02-02T23:50:04.372Z,86.13
2023-02-02T23:53:08.346Z,85.91
2023-02-02T23:56:11.119Z,85.37
2023-02-02T23:59:13.700Z,85.17
